Time,TemperatureF,DewpointF,PressureIn,WindDirection,WindDirectionDegrees,WindSpeedMPH,WindSpeedGustMPH,Humidity,HourlyPrecipIn,Conditions,Clouds,dailyrainin,SoftwareType,DateUTC
2013-07-08 00:14:00,67.1,63.4,30.08,WNW,292,0.0,0.0,88,0.00,OVC,,0.00,WeatherDisplay:10.37,2013-07-08 04:14:00,
2013-07-08 00:29:00,66.8,63.2,30.09,WNW,292,0.0,0.0,88,0.00,OVC,,0.00,WeatherDisplay:10.37,2013-07-08 04:29:00,
2013-07-08 00:44:00,66.6,62.9,30.09,WNW,292,0.0,0.0,88,0.00,OVC,,0.00,WeatherDisplay:10.37,2013-07-08 04:44:00,
2013-07-08 00:59:00,66.4,62.7,30.09,WNW,292,0.0,0.0,88,0.00,OVC,,0.00,WeatherDisplay:10.37,2013-07-08 04:59:00,
2013-07-08 01:14:00,66.3,62.6,30.08,WNW,292,0.0,0.0,88,0.00,OVC,,0.00,WeatherDisplay:10.37,2013-07-08 05:14:00,
2013-07-08 01:29:00,66.2,62.5,30.08,WNW,292,0.0,0.0,88,0.00,OVC,,0.00,WeatherDisplay:10.37,2013-07-08 05:29:00,
2013-07-08 01:44:00,66.1,62.4,30.08,WNW,292,0.0,0.0,88,0.00,OVC,,0.00,WeatherDisplay:10.37,2013-07-08 05:44:00,
2013-07-08 01:59:00,66.0,62.3,30.08,WNW,292,0.0,0.0,88,0.00,OVC,,0.00,WeatherDisplay:10.37,2013-07-08 05:59:00,
2013-07-08 02:14:00,66.0,62.7,30.08,WNW,292,0.0,0.0,89,0.00,OVC,,0.00,WeatherDisplay:10.37,2013-07-08 06:14:00,
2013-07-08 02:29:00,66.1,62.8,30.08,WNW,292,0.0,0.0,89,0.00,OVC,,0.00,WeatherDisplay:10.37,2013-07-08 06:29:00,
2013-07-08 02:44:00,66.2,62.9,30.08,WNW,292,0.0,0.0,89,0.00,OVC,,0.00,WeatherDisplay:10.37,2013-07-08 06:44:00,
2013-07-08 02:59:00,66.3,63.0,30.08,WNW,292,0.0,0.0,89,0.00,OVC,,0.00,WeatherDisplay:10.37,2013-07-08 06:59:00,
2013-07-08 03:14:00,66.3,63.0,30.08,WNW,292,0.0,0.0,89,0.00,OVC,,0.00,WeatherDisplay:10.37,2013-07-08 07:14:00,
2013-07-08 03:29:00,66.3,62.9,30.08,WNW,292,0.0,0.0,89,0.00,OVC,,0.00,WeatherDisplay:10.37,2013-07-08 07:29:00,
2013-07-08 03:44:00,66.1,62.8,30.07,WNW,292,0.0,0.0,89,0.00,OVC,,0.00,WeatherDisplay:10.37,2013-07-08 07:44:00,
2013-07-08 03:59:00,66.2,62.8,30.07,WNW,292,0.0,0.0,89,0.00,OVC,,0.00,WeatherDisplay:10.37,2013-07-08 07:59:00,
2013-07-08 04:14:00,66.2,62.9,30.07,WNW,292,0.0,0.0,89,0.00,OVC,,0.00,WeatherDisplay:10.37,2013-07-08 08:14:00,
2013-07-08 04:29:00,66.3,63.0,30.07,WNW,292,0.0,0.0,89,0.00,OVC,,0.00,WeatherDisplay:10.37,2013-07-08 08:29:00,
2013-07-08 04:44:00,66.3,63.0,30.07,WNW,292,0.0,1.0,89,0.00,OVC,,0.00,WeatherDisplay:10.37,2013-07-08 08:44:00,
2013-07-08 04:59:00,66.4,63.1,30.07,WNW,298,0.0,1.0,89,0.00,OVC,,0.00,WeatherDisplay:10.37,2013-07-08 08:59:00,
2013-07-08 05:14:00,66.2,62.9,30.08,WNW,298,0.0,0.0,89,0.00,OVC,,0.00,WeatherDisplay:10.37,2013-07-08 09:14:00,
2013-07-08 05:29:00,66.2,62.9,30.08,WNW,298,0.0,0.0,89,0.00,OVC,,0.00,WeatherDisplay:10.37,2013-07-08 09:29:00,
2013-07-08 05:44:00,66.3,62.9,30.08,WNW,298,0.0,0.0,89,0.00,OVC,,0.00,WeatherDisplay:10.37,2013-07-08 09:44:00,
2013-07-08 05:59:00,66.2,62.8,30.08,WNW,298,0.0,0.0,89,0.00,OVC,,0.00,WeatherDisplay:10.37,2013-07-08 09:59:00,
2013-07-08 06:14:00,65.9,62.6,30.08,WNW,298,0.0,0.0,89,0.00,OVC,,0.00,WeatherDisplay:10.37,2013-07-08 10:14:00,
2013-07-08 06:29:00,65.7,62.4,30.08,WNW,298,0.0,0.0,89,0.00,OVC,,0.00,WeatherDisplay:10.37,2013-07-08 10:29:00,
2013-07-08 06:44:00,65.5,62.2,30.09,WNW,298,0.0,0.0,89,0.00,OVC,,0.00,WeatherDisplay:10.37,2013-07-08 10:44:00,
2013-07-08 06:59:00,65.5,62.2,30.09,WNW,298,0.0,0.0,89,0.00,OVC,,0.00,WeatherDisplay:10.37,2013-07-08 10:59:00,
2013-07-08 07:14:00,65.8,62.5,30.09,WNW,298,0.0,0.0,89,0.00,OVC,,0.00,WeatherDisplay:10.37,2013-07-08 11:14:00,
2013-07-08 07:29:00,66.1,62.8,30.10,WNW,298,0.0,0.0,89,0.00,OVC,,0.00,WeatherDisplay:10.37,2013-07-08 11:29:00,
2013-07-08 07:45:00,66.7,63.4,30.10,WNW,298,0.0,1.0,89,0.00,OVC,,0.00,WeatherDisplay:10.37,2013-07-08 11:45:00,
2013-07-08 07:59:00,67.0,64.0,30.10,ENE,77,0.0,3.0,90,0.00,OVC,,0.00,WeatherDisplay:10.37,2013-07-08 11:59:00,
2013-07-08 08:14:00,67.2,63.8,30.10,ENE,78,0.0,3.0,89,0.00,OVC,,0.00,WeatherDisplay:10.37,2013-07-08 12:14:00,
2013-07-08 08:29:00,67.5,64.5,30.10,ENE,78,0.0,3.0,90,0.00,OVC,,0.00,WeatherDisplay:10.37,2013-07-08 12:29:00,
2013-07-08 08:44:00,68.1,64.7,30.10,ENE,78,0.0,2.0,89,0.00,OVC,,0.00,WeatherDisplay:10.37,2013-07-08 12:44:00,
2013-07-08 08:59:00,68.8,65.4,30.10,ENE,78,0.0,1.0,89,0.00,OVC,,0.00,WeatherDisplay:10.37,2013-07-08 12:59:00,
2013-07-08 09:14:00,70.2,66.4,30.10,ENE,78,1.0,3.0,88,0.00,OVC,,0.00,WeatherDisplay:10.37,2013-07-08 13:14:00,
2013-07-08 09:29:00,72.0,67.6,30.11,ENE,78,1.0,2.0,86,0.00,OVC,,0.00,WeatherDisplay:10.37,2013-07-08 13:29:00,
2013-07-08 09:44:00,73.3,68.2,30.11,ENE,78,1.0,3.0,84,0.00,OVC,,0.00,WeatherDisplay:10.37,2013-07-08 13:44:00,
2013-07-08 09:59:00,75.0,68.4,30.10,East,88,2.0,4.0,80,0.00,OVC,,0.00,WeatherDisplay:10.37,2013-07-08 13:59:00,
2013-07-08 10:14:00,75.6,68.2,30.10,ESE,117,0.0,6.0,78,0.00,OVC,,0.00,WeatherDisplay:10.37,2013-07-08 14:14:00,
2013-07-08 10:29:00,76.3,68.9,30.10,ESE,106,3.0,9.0,78,0.00,OVC,,0.00,WeatherDisplay:10.37,2013-07-08 14:29:00,
2013-07-08 10:44:00,77.8,70.0,30.10,ENE,74,0.0,9.0,77,0.00,SCT,,0.00,WeatherDisplay:10.37,2013-07-08 14:44:00,
2013-07-08 10:59:00,78.0,68.6,30.11,WNW,283,0.0,7.0,73,0.00,SCT,,0.00,WeatherDisplay:10.37,2013-07-08 14:59:00,
2013-07-08 11:14:00,77.4,68.9,30.11,West,269,1.0,2.0,75,0.00,SCT,,0.00,WeatherDisplay:10.37,2013-07-08 15:14:00,
2013-07-08 11:29:00,78.8,68.6,30.11,ESE,120,2.0,4.0,71,0.00,SCT,,0.00,WeatherDisplay:10.37,2013-07-08 15:29:00,
2013-07-08 11:44:00,80.5,67.6,30.10,East,81,2.0,6.0,65,0.00,FEW,,0.00,WeatherDisplay:10.37,2013-07-08 15:44:00,
2013-07-08 11:59:00,81.0,69.0,30.10,ENE,66,1.0,6.0,67,0.00,FEW,,0.00,WeatherDisplay:10.37,2013-07-08 15:59:00,
2013-07-08 12:14:00,81.2,67.4,30.10,SSW,193,2.0,6.0,63,0.00,FEW,,0.00,WeatherDisplay:10.37,2013-07-08 16:14:00,
2013-07-08 12:29:00,80.1,69.4,30.10,NE,40,1.0,4.0,70,0.00,FEW,,0.00,WeatherDisplay:10.37,2013-07-08 16:29:00,
2013-07-08 12:59:00,81.3,68.4,30.09,ESE,121,1.0,3.0,65,0.00,BKN,,0.00,WeatherDisplay:10.37,2013-07-08 16:59:00,
2013-07-08 13:29:00,81.9,66.7,30.08,NE,56,1.0,7.0,60,0.00,BKN,,0.00,WeatherDisplay:10.37,2013-07-08 17:29:00,
2013-07-08 13:59:00,83.0,65.7,30.08,ENE,65,1.0,7.0,56,0.00,CLR,,0.00,WeatherDisplay:10.37,2013-07-08 17:59:00,
2013-07-08 14:29:00,80.9,68.5,30.06,NNW,335,1.0,3.0,66,0.00,CLR,,0.00,WeatherDisplay:10.37,2013-07-08 18:29:00,
2013-07-08 14:59:00,83.4,68.5,30.05,SSW,204,1.0,6.0,61,0.00,BKN,,0.00,WeatherDisplay:10.37,2013-07-08 18:59:00,
2013-07-08 15:44:00,83.9,68.0,30.04,East,79,1.0,7.0,59,0.00,BKN,,0.00,WeatherDisplay:10.37,2013-07-08 19:44:00,
2013-07-08 15:59:00,81.8,68.8,30.03,ENE,70,0.0,3.0,65,0.00,BKN,,0.00,WeatherDisplay:10.37,2013-07-08 19:59:00,
2013-07-08 16:44:00,84.2,69.8,30.02,East,90,1.0,4.0,62,0.00,SCT,,0.00,WeatherDisplay:10.37,2013-07-08 20:44:00,
2013-07-08 16:59:00,84.1,68.7,30.02,ENE,74,1.0,2.0,60,0.00,SCT,,0.00,WeatherDisplay:10.37,2013-07-08 20:59:00,
2013-07-08 17:14:00,83.5,73.1,30.01,ENE,73,1.0,4.0,71,0.00,SCT,,0.00,WeatherDisplay:10.37,2013-07-08 21:14:00,
2013-07-08 17:30:00,81.8,72.3,30.00,WNW,300,1.0,4.0,73,0.00,SCT,,0.00,WeatherDisplay:10.37,2013-07-08 21:30:00,
2013-07-08 17:44:00,81.7,73.0,30.00,WNW,296,1.0,4.0,75,0.00,OVC,,0.00,WeatherDisplay:10.37,2013-07-08 21:44:00,
2013-07-08 17:59:00,82.1,73.0,30.00,WNW,296,1.0,4.0,74,0.00,OVC,,0.00,WeatherDisplay:10.37,2013-07-08 21:59:00,
2013-07-08 18:14:00,82.2,71.4,30.00,NW,315,1.0,8.0,70,0.00,OVC,,0.00,WeatherDisplay:10.37,2013-07-08 22:14:00,
2013-07-08 18:44:00,78.8,69.8,30.01,NW,304,3.0,5.0,74,0.00,OVC,,0.00,WeatherDisplay:10.37,2013-07-08 22:44:00,
2013-07-08 20:59:00,71.5,66.4,30.04,NW,310,1.0,4.0,84,0.00,OVC,,0.00,WeatherDisplay:10.37,2013-07-09 00:59:00,
2013-07-08 21:14:00,71.0,66.2,30.06,NW,309,0.0,4.0,85,0.00,OVC,,0.00,WeatherDisplay:10.37,2013-07-09 01:14:00,
2013-07-08 21:29:00,70.8,66.1,30.06,NNW,328,0.0,1.0,85,0.00,OVC,,0.00,WeatherDisplay:10.37,2013-07-09 01:29:00,
2013-07-08 21:45:00,70.7,66.0,30.07,NNW,340,0.0,1.0,85,0.00,SCT,,0.00,WeatherDisplay:10.37,2013-07-09 01:45:00,
2013-07-08 21:59:00,70.5,65.8,30.07,NNW,340,0.0,1.0,85,0.00,SCT,,0.00,WeatherDisplay:10.37,2013-07-09 01:59:00,
2013-07-08 22:14:00,70.3,65.9,30.08,NNW,340,0.0,0.0,86,0.00,SCT,,0.00,WeatherDisplay:10.37,2013-07-09 02:14:00,
2013-07-08 23:29:00,68.8,64.8,30.08,NNW,340,0.0,0.0,87,0.00,SCT,,0.00,WeatherDisplay:10.37,2013-07-09 03:29:00,
2013-07-08 23:59:00,68.1,64.1,30.08,NNW,340,0.0,1.0,87,0.00,SCT,,0.00,WeatherDisplay:10.37,2013-07-09 03:59:00,